Last 7 Days

Kelseyville Remote

Hourly Data | America/Los_Angeles
as of 7/15/24 5:46 PM PDT
Date & Time Temp (°F) RH (%) Dew Pt (°F) Wet Bulb (°F) BatVolt (V) Latest Rain (In) Daily Rain (In) Daily Min Temp (°F) Daily Max Temp (°F)
7/15/24 - 1700 93.2 12 32.0 56.6 13.3 0.00 0.00 59.8 99.7
7/15/24 - 1600 96.1 14 39.1 59.1 13.3 0.00 0.00 59.8 99.7
7/15/24 - 1500 98.0 17 45.7 61.6 13.3 0.00 0.00 59.8 99.7
7/15/24 - 1400 97.8 20 49.5 63.1 13.3 0.00 0.00 59.8 99.5
7/15/24 - 1300 92.5 29 55.0 65.2 13.4 0.00 0.00 59.8 96.4
7/15/24 - 1200 88.2 37 58.3 66.6 13.4 0.00 0.00 59.8 89.6
7/15/24 - 1100 84.1 40 57.0 65.4 13.5 0.00 0.00 59.8 86.3
7/15/24 - 1000 81.0 37 52.4 62.1 13.5 0.00 0.00 59.8 82.4
7/15/24 - 0900 79.8 37 51.0 61.1 13.5 0.00 0.00 59.8 81.1
7/15/24 - 0800 73.6 43 49.9 59.0 13.8 0.00 0.00 59.8 77.8
7/15/24 - 0700 62.1 61 48.3 54.7 13.0 0.00 0.00 59.8 67.9
7/15/24 - 0600 60.7 63 48.2 54.2 12.8 0.00 0.00 60.0 67.6
7/15/24 - 0500 61.9 61 48.2 54.6 12.8 0.00 0.00 61.0 67.6
7/15/24 - 0400 63.8 58 48.6 55.5 12.9 0.00 0.00 63.2 67.6
7/15/24 - 0300 65.8 52 47.6 55.6 12.9 0.00 0.00 65.1 67.6
7/15/24 - 0200 66.6 53 49.1 56.6 12.9 0.00 0.00 65.7 67.6
7/15/24 - 0100 68.3 53 50.3 57.9 12.9 0.00 0.00 65.5 101.4
7/15/24 - 0000 71.4 47 50.2 58.7 13.0 0.00 0.00 65.5 101.4
7/14/24 - 2300 74.2 43 50.3 59.5 13.0 0.00 0.00 65.5 101.4
7/14/24 - 2200 77.4 38 50.0 60.0 13.0 0.00 0.00 65.5 101.4
7/14/24 - 2100 84.1 31 50.2 61.5 13.0 0.00 0.00 65.5 101.4
7/14/24 - 2000 93.0 19 44.2 60.4 13.2 0.00 0.00 65.5 101.4
7/14/24 - 1900 96.0 14 38.6 58.9 13.3 0.00 0.00 65.5 101.4
7/14/24 - 1800 98.3 10 32.1 57.5 13.3 0.00 0.00 65.5 101.4
7/14/24 - 1700 99.1 10 32.3 57.7 13.3 0.00 0.00 65.5 101.4
7/14/24 - 1600 99.6 10 34.3 58.2 13.3 0.00 0.00 65.5 101.4
7/14/24 - 1500 99.4 14 42.1 60.5 13.3 0.00 0.00 65.5 101.4
7/14/24 - 1400 96.9 20 48.8 62.8 13.3 0.00 0.00 65.5 97.9
7/14/24 - 1300 94.3 27 55.3 65.6 13.4 0.00 0.00 65.5 95.7
7/14/24 - 1200 92.8 30 56.6 66.2 13.4 0.00 0.00 65.5 95.3
7/14/24 - 1100 88.4 33 55.2 64.9 13.4 0.00 0.00 65.5 90.5
7/14/24 - 1000 82.5 42 57.0 65.1 13.5 0.00 0.00 65.5 86.4
7/14/24 - 0900 81.7 38 53.2 62.7 13.5 0.00 0.00 65.5 85.2
7/14/24 - 0800 76.0 45 52.5 61.1 13.6 0.00 0.00 65.5 83.5
7/14/24 - 0700 66.8 59 51.9 58.4 13.1 0.00 0.00 65.5 71.4
7/14/24 - 0600 68.3 56 51.8 58.8 12.8 0.00 0.00 66.5 71.4
7/14/24 - 0500 69.5 52 51.0 58.6 12.8 0.00 0.00 67.2 71.4
7/14/24 - 0400 67.7 56 51.6 58.5 12.9 0.00 0.00 67.2 71.4
7/14/24 - 0300 69.5 51 50.6 58.4 12.9 0.00 0.00 68.2 71.4
7/14/24 - 0200 70.9 48 50.1 58.5 12.9 0.00 0.00 69.8 71.4
7/14/24 - 0100 71.6 49 51.2 59.3 12.9 0.00 0.00 59.5 106.5
7/14/24 - 0000 76.0 40 49.9 59.7 13.0 0.00 0.00 59.5 106.5
7/13/24 - 2300 77.5 37 49.3 59.7 13.0 0.00 0.00 59.5 106.5
7/13/24 - 2200 80.9 32 48.2 59.9 13.0 0.00 0.00 59.5 106.5
7/13/24 - 2100 83.1 35 53.0 62.8 13.0 0.00 0.00 59.5 106.5
7/13/24 - 2000 87.1 33 54.7 64.4 13.2 0.00 0.00 59.5 106.5
7/13/24 - 1900 92.4 29 55.3 65.3 13.3 0.00 0.00 59.5 106.5
7/13/24 - 1800 97.9 22 52.0 64.2 13.3 0.00 0.00 59.5 106.5
7/13/24 - 1700 98.7 20 50.4 63.6 13.2 0.00 0.00 59.5 106.5
7/13/24 - 1600 100.7 20 51.8 64.3 13.2 0.00 0.00 59.5 106.5
7/13/24 - 1500 105.0 15 47.4 62.9 13.2 0.00 0.00 59.5 106.5
7/13/24 - 1400 100.6 23 56.1 66.5 13.3 0.00 0.00 59.5 103.3
7/13/24 - 1300 97.6 29 59.8 68.3 13.3 0.00 0.00 59.5 101.2
7/13/24 - 1200 92.1 31 56.7 66.1 13.4 0.00 0.00 59.5 95.2
7/13/24 - 1100 89.5 31 54.9 64.9 13.4 0.00 0.00 59.5 92.3
7/13/24 - 1000 82.9 36 52.8 62.7 13.5 0.00 0.00 59.5 86.2
7/13/24 - 0900 73.0 47 51.4 59.8 13.7 0.00 0.00 59.5 79.3
7/13/24 - 0800 69.4 52 51.1 58.7 13.5 0.00 0.00 59.5 71.7
7/13/24 - 0700 62.4 61 48.9 55.2 13.2 0.00 0.00 59.5 68.0
7/13/24 - 0600 60.6 70 50.6 55.6 12.8 0.00 0.00 60.1 68.0
7/13/24 - 0500 62.1 64 49.8 55.7 12.8 0.00 0.00 60.3 68.0
7/13/24 - 0400 63.4 63 50.7 56.6 12.8 0.00 0.00 62.1 68.0
7/13/24 - 0300 65.1 58 50.0 56.8 12.8 0.00 0.00 64.2 68.0
7/13/24 - 0200 67.4 54 50.0 57.5 12.9 0.00 0.00 66.4 68.0
7/13/24 - 0100 69.5 52 51.0 58.6 12.9 0.00 0.00 58.2 108.8
7/13/24 - 0000 72.7 46 50.6 59.3 12.9 0.00 0.00 58.2 108.8
7/12/24 - 2300 76.5 42 51.7 60.8 13.0 0.00 0.00 58.2 108.8
7/12/24 - 2200 79.9 41 53.9 62.8 13.0 0.00 0.00 58.2 108.8
7/12/24 - 2100 90.4 28 52.0 63.4 13.0 0.00 0.00 58.2 108.8
7/12/24 - 2000 99.9 19 50.2 63.6 13.2 0.00 0.00 58.2 108.8
7/12/24 - 1900 104.7 14 46.2 62.4 13.2 0.00 0.00 58.2 108.8
7/12/24 - 1800 107.5 9 37.6 60.0 13.2 0.00 0.00 58.2 108.8
7/12/24 - 1700 106.8 10 38.2 60.2 13.2 0.00 0.00 58.2 108.8
7/12/24 - 1600 106.4 12 44.1 61.8 13.2 0.00 0.00 58.2 107.6
7/12/24 - 1500 104.3 16 49.6 63.7 13.3 0.00 0.00 58.2 105.3
7/12/24 - 1400 101.3 19 51.1 64.2 13.3 0.00 0.00 58.2 103.6
7/12/24 - 1300 97.2 19 47.9 62.4 13.3 0.00 0.00 58.2 98.7
7/12/24 - 1200 92.3 25 51.0 63.2 13.4 0.00 0.00 58.2 95.2
7/12/24 - 1100 88.4 29 51.9 63.1 13.4 0.00 0.00 58.2 89.7
7/12/24 - 1000 86.0 27 48.5 61.1 13.5 0.00 0.00 58.2 87.6
7/12/24 - 0900 79.7 31 45.9 58.6 13.6 0.00 0.00 58.2 82.8
7/12/24 - 0800 73.6 36 44.6 56.4 13.7 0.00 0.00 58.2 79.5
7/12/24 - 0700 61.8 53 44.2 52.4 13.1 0.00 0.00 58.2 67.3
7/12/24 - 0600 59.0 61 45.5 52.1 12.8 0.00 0.00 58.2 67.3
7/12/24 - 0500 60.3 60 46.5 53.1 12.8 0.00 0.00 59.1 67.3
7/12/24 - 0400 62.0 57 46.4 53.7 12.8 0.00 0.00 60.5 67.3
7/12/24 - 0300 63.6 58 48.6 55.5 12.9 0.00 0.00 62.1 67.3
7/12/24 - 0200 65.8 53 48.0 55.8 12.9 0.00 0.00 63.7 67.3
7/12/24 - 0100 68.9 46 47.2 56.4 12.9 0.00 0.00 61.6 109.7
7/12/24 - 0000 72.2 43 48.3 57.9 12.9 0.00 0.00 61.6 109.7
7/11/24 - 2300 75.5 40 49.2 59.2 13.0 0.00 0.00 61.6 109.7
7/11/24 - 2200 80.6 34 49.5 60.5 13.0 0.00 0.00 61.6 109.7
7/11/24 - 2100 90.1 24 48.0 61.5 13.0 0.00 0.00 61.6 109.7
7/11/24 - 2000 98.5 16 44.8 61.3 13.2 0.00 0.00 61.6 109.7
7/11/24 - 1900 103.3 13 43.2 61.3 13.2 0.00 0.00 61.6 109.7
7/11/24 - 1800 106.1 11 40.2 60.6 13.2 0.00 0.00 61.6 109.7
7/11/24 - 1700 107.6 8 34.4 59.2 13.2 0.00 0.00 61.6 109.7
7/11/24 - 1600 106.3 10 38.1 60.2 13.2 0.00 0.00 61.6 109.7
7/11/24 - 1500 103.3 14 44.3 61.8 13.3 0.00 0.00 61.6 104.8
7/11/24 - 1400 99.8 25 57.3 67.2 13.3 0.00 0.00 61.6 102.4
7/11/24 - 1300 95.7 31 60.0 68.3 13.3 0.00 0.00 61.6 97.6
7/11/24 - 1200 91.4 37 61.6 69.1 13.4 0.00 0.00 61.6 93.8
7/11/24 - 1100 89.8 36 58.9 67.2 13.4 0.00 0.00 61.6 90.9
7/11/24 - 1000 87.0 35 55.7 65.0 13.4 0.00 0.00 61.6 88.9
7/11/24 - 0900 83.4 38 55.5 64.3 13.5 0.00 0.00 61.6 86.1
7/11/24 - 0800 76.8 43 52.6 61.3 13.7 0.00 0.00 61.6 81.0
7/11/24 - 0700 65.0 59 50.4 56.9 13.1 0.00 0.00 61.6 70.1
7/11/24 - 0600 62.1 67 50.9 56.3 12.8 0.00 0.00 61.6 70.1
7/11/24 - 0500 63.8 63 50.9 56.8 12.8 0.00 0.00 62.5 70.1
7/11/24 - 0400 65.2 59 50.6 57.1 12.8 0.00 0.00 64.8 70.1
7/11/24 - 0300 66.5 59 51.5 58.1 12.9 0.00 0.00 65.7 70.1
7/11/24 - 0200 69.0 52 50.7 58.3 12.9 0.00 0.00 67.7 70.1
7/11/24 - 0100 71.7 51 52.7 60.2 12.9 0.00 0.00 60.9 108.6
7/11/24 - 0000 76.1 45 53.5 61.7 12.9 0.00 0.00 60.9 108.6
7/10/24 - 2300 80.3 39 52.9 62.3 13.0 0.00 0.00 60.9 108.6
7/10/24 - 2200 83.2 33 51.0 61.8 13.0 0.00 0.00 60.9 108.6
7/10/24 - 2100 90.7 25 49.8 62.4 13.0 0.00 0.00 60.9 108.6
7/10/24 - 2000 97.4 21 50.9 63.7 13.2 0.00 0.00 60.9 108.6
7/10/24 - 1900 100.1 21 52.7 64.7 13.2 0.00 0.00 60.9 108.6
7/10/24 - 1800 103.2 19 52.4 64.8 13.2 0.00 0.00 60.9 108.6
7/10/24 - 1700 106.3 15 49.0 63.6 13.2 0.00 0.00 60.9 108.6
7/10/24 - 1600 106.2 10 38.9 60.4 13.2 0.00 0.00 60.9 107.7
7/10/24 - 1500 103.4 14 45.4 62.2 13.3 0.00 0.00 60.9 104.8
7/10/24 - 1400 99.4 23 54.8 65.8 13.3 0.00 0.00 60.9 101.4
7/10/24 - 1300 95.1 32 61.0 68.9 13.3 0.00 0.00 60.9 96.7
7/10/24 - 1200 92.4 36 61.3 68.9 13.4 0.00 0.00 60.9 94.0
7/10/24 - 1100 88.8 40 61.1 68.5 13.4 0.00 0.00 60.9 91.7
7/10/24 - 1000 85.2 43 60.3 67.7 13.5 0.00 0.00 60.9 86.1
7/10/24 - 0900 82.7 40 55.8 64.4 13.5 0.00 0.00 60.9 85.8
7/10/24 - 0800 74.8 51 55.3 62.5 13.7 0.00 0.00 60.9 79.0
7/10/24 - 0700 64.2 68 53.2 58.4 13.1 0.00 0.00 60.9 70.6
7/10/24 - 0600 61.8 72 52.6 57.2 12.8 0.00 0.00 60.9 68.8
7/10/24 - 0500 62.7 69 52.2 57.3 12.8 0.00 0.00 61.7 68.8
7/10/24 - 0400 64.4 67 53.2 58.5 12.8 0.00 0.00 63.4 68.8
7/10/24 - 0300 65.8 64 53.3 58.9 12.8 0.00 0.00 65.2 68.8
7/10/24 - 0200 67.6 63 54.6 60.3 12.9 0.00 0.00 67.1 68.8
7/10/24 - 0100 70.5 58 55.3 61.5 12.9 0.00 0.00 58.0 105.2
7/10/24 - 0000 73.6 55 56.2 62.9 12.9 0.00 0.00 58.0 105.2
7/9/24 - 2300 76.3 53 58.1 64.7 13.0 0.00 0.00 58.0 105.2
7/9/24 - 2200 80.5 46 58.0 65.4 13.0 0.00 0.00 58.0 105.2
7/9/24 - 2100 87.1 38 58.3 66.5 13.0 0.00 0.00 58.0 105.2
7/9/24 - 2000 94.8 30 58.4 67.3 13.2 0.00 0.00 58.0 105.2
7/9/24 - 1900 98.4 23 54.7 65.6 13.3 0.00 0.00 58.0 105.2
7/9/24 - 1800 100.4 16 46.8 62.3 13.2 0.00 0.00 58.0 105.2
7/9/24 - 1700 101.7 12 39.9 60.1 13.3 0.00 0.00 58.0 105.2
7/9/24 - 1600 102.7 15 45.7 62.1 13.3 0.00 0.00 58.0 105.2
7/9/24 - 1500 101.9 16 47.8 62.8 13.3 0.00 0.00 58.0 102.9
7/9/24 - 1400 97.7 26 56.9 66.8 13.3 0.00 0.00 58.0 100.5
7/9/24 - 1300 93.5 30 57.8 66.8 13.4 0.00 0.00 58.0 95.4
7/9/24 - 1200 89.2 34 56.9 65.9 13.4 0.00 0.00 58.0 92.0
7/9/24 - 1100 86.9 34 55.1 64.6 13.4 0.00 0.00 58.0 88.1
7/9/24 - 1000 83.9 32 50.9 61.8 13.5 0.00 0.00 58.0 86.1
7/9/24 - 0900 80.6 29 45.7 58.7 13.6 0.00 0.00 58.0 82.0
7/9/24 - 0800 73.6 34 43.4 55.8 13.7 0.00 0.00 58.0 81.2
7/9/24 - 0700 62.0 48 42.1 51.5 13.1 0.00 0.00 58.0 67.9
7/9/24 - 0600 59.2 53 42.3 50.5 12.8 0.00 0.00 58.4 67.6
7/9/24 - 0500 61.5 49 42.3 51.4 12.8 0.00 0.00 59.8 67.6
7/9/24 - 0400 62.7 46 41.8 51.6 12.8 0.00 0.00 62.2 67.6
7/9/24 - 0300 64.5 47 43.6 53.2 12.9 0.00 0.00 62.8 67.6
7/9/24 - 0200 66.7 41 42.2 53.2 12.8 0.00 0.00 65.6 67.6
7/9/24 - 0100 69.2 37 42.0 53.9 12.9 0.00 0.00 59.0 105.9
7/9/24 - 0000 73.0 32 41.4 54.9 12.9 0.00 0.00 59.0 105.9
7/8/24 - 2300 77.4 27 40.6 55.7 13.0 0.00 0.00 59.0 105.9
7/8/24 - 2200 80.8 24 40.6 56.6 13.0 0.00 0.00 59.0 105.9
7/8/24 - 2100 86.7 19 39.4 57.4 13.0 0.00 0.00 59.0 105.9
7/8/24 - 2000 94.3 15 39.3 58.8 13.2 0.00 0.00 59.0 105.9
7/8/24 - 1900 98.4 15 42.8 60.6 13.3 0.00 0.00 59.0 105.9
7/8/24 - 1800 101.6 16 47.2 62.5 13.3 0.00 0.00 59.0 105.9
Max 107.6 72 61.6 69.1 13.8 0.00 0.00 69.8 109.7
Avg 82.9 36 49.6 60.6 13.2 0.00 - - -
Min 59.0 8 32.0 50.5 12.8 0.00 0.00 58.0 67.3
Total - - - - - 0.00 - - -